Warrington, Pennsylvania
Current Conditions -  °F | °C
As of 8:54 PM on Friday 28 Nov 2014 (Local Time) from KDYL Reporting Station
Clear Clear  
Wind Chill: 24°   Ceiling: Unl
Heat Index: 24°   Visibility: 10mi
Dew Point: 16°   Wind: 0mph
Humidity: 71%   Direction: NA
Pressure: 30.26"   Gusts: NA
Location:  40.25°N, 75.13°W
Report Text: KDYL 290154Z AUTO 00000KT 10SM CLR M04/M09 A3026 RMK AO2 SLP256 T10441089 $
Loading
Personal Weather Stations






























Interactive Weather Map New forecast layout! Learn more

10-Day Weather Forecast

Advertisements
Track Severe Weather on mobile